createdAt,value
2023-03-01T00:03:52.314Z,500.00
2023-03-01T00:07:52.173Z,500.00
2023-03-01T00:11:52.194Z,505.00
2023-03-01T00:15:52.171Z,507.00
2023-03-01T00:19:52.193Z,507.00
2023-03-01T00:23:52.152Z,511.00
2023-03-01T00:27:52.115Z,503.00
2023-03-01T00:31:52.136Z,511.00
2023-03-01T00:35:52.137Z,505.00
2023-03-01T00:39:52.110Z,516.00
2023-03-01T00:43:52.098Z,503.00
2023-03-01T00:47:52.129Z,514.00
2023-03-01T00:51:52.111Z,506.00
2023-03-01T00:55:52.167Z,509.00
2023-03-01T00:59:52.211Z,501.00
2023-03-01T01:03:52.197Z,506.00
2023-03-01T01:07:52.237Z,515.00
2023-03-01T01:11:52.258Z,509.00
2023-03-01T01:15:52.307Z,508.00
2023-03-01T01:19:52.297Z,509.00
2023-03-01T01:23:52.353Z,502.00
2023-03-01T01:27:52.366Z,511.00
2023-03-01T01:31:52.427Z,503.00
2023-03-01T01:35:52.448Z,516.00
2023-03-01T01:39:52.475Z,505.00
2023-03-01T01:43:52.538Z,502.00
2023-03-01T01:47:52.557Z,521.00
2023-03-01T01:51:52.621Z,506.00
2023-03-01T01:55:52.660Z,502.00
2023-03-01T01:59:52.736Z,505.00
2023-03-01T02:03:52.777Z,508.00
2023-03-01T02:07:52.817Z,514.00
2023-03-01T02:11:52.944Z,514.00
2023-03-01T02:15:53.066Z,509.00
2023-03-01T02:19:53.058Z,514.00
2023-03-01T02:23:53.107Z,506.00
2023-03-01T02:27:53.188Z,511.00
2023-03-01T02:31:53.291Z,518.00
2023-03-01T02:35:53.333Z,507.00
2023-03-01T02:39:53.345Z,519.00
2023-03-01T02:43:53.420Z,517.00
2023-03-01T02:47:53.512Z,510.00
2023-03-01T02:51:53.571Z,516.00
2023-03-01T02:55:53.646Z,519.00
2023-03-01T02:59:53.755Z,512.00
2023-03-01T03:03:53.823Z,507.00
2023-03-01T03:07:53.864Z,507.00
2023-03-01T03:11:53.939Z,522.00
2023-03-01T03:15:54.045Z,517.00
2023-03-01T03:19:54.097Z,507.00
2023-03-01T03:23:54.201Z,526.00
2023-03-01T03:27:54.281Z,530.00
2023-03-01T03:31:54.479Z,528.00
2023-03-01T03:35:54.466Z,523.00
2023-03-01T03:39:54.532Z,525.00
2023-03-01T03:43:54.642Z,514.00
2023-03-01T03:47:54.758Z,523.00
2023-03-01T03:51:54.840Z,519.00
2023-03-01T03:55:54.872Z,525.00
2023-03-01T03:59:54.957Z,521.00
2023-03-01T04:03:55.012Z,521.00
2023-03-01T04:07:55.104Z,524.00
2023-03-01T04:11:55.232Z,517.00
2023-03-01T04:15:55.341Z,523.00
2023-03-01T04:19:55.452Z,523.00
2023-03-01T04:23:55.558Z,531.00
2023-03-01T04:27:55.688Z,527.00
2023-03-01T04:31:55.919Z,527.00
2023-03-01T04:35:56.097Z,521.00
2023-03-01T04:39:56.037Z,521.00
2023-03-01T04:43:56.158Z,524.00
2023-03-01T04:47:56.286Z,519.00
2023-03-01T04:51:56.389Z,520.00
2023-03-01T04:55:56.475Z,524.00
2023-03-01T04:59:56.601Z,514.00
2023-03-01T05:03:56.712Z,524.00
2023-03-01T05:07:56.785Z,516.00
2023-03-01T05:11:56.886Z,521.00
2023-03-01T05:15:56.995Z,517.00
2023-03-01T05:19:57.099Z,509.00
2023-03-01T05:23:57.209Z,510.00
2023-03-01T05:27:57.368Z,514.00
2023-03-01T05:31:57.472Z,509.00
2023-03-01T05:35:57.608Z,505.00
2023-03-01T05:39:57.658Z,512.00
2023-03-01T05:43:57.807Z,510.00
2023-03-01T05:47:57.904Z,507.00
2023-03-01T05:51:58.066Z,508.00
2023-03-01T05:55:58.178Z,507.00
2023-03-01T05:59:58.352Z,505.00
2023-03-01T06:03:58.487Z,515.00
2023-03-01T06:07:58.626Z,517.00
2023-03-01T06:11:58.761Z,521.00
2023-03-01T06:15:58.996Z,518.00
2023-03-01T06:19:59.040Z,531.00
2023-03-01T06:23:59.171Z,521.00
2023-03-01T06:27:59.288Z,534.00
2023-03-01T06:31:59.454Z,532.00
2023-03-01T06:35:59.520Z,534.00
2023-03-01T06:39:59.692Z,543.00
2023-03-01T06:43:59.841Z,1116.00
2023-03-01T06:48:00.241Z,1296.00
2023-03-01T06:52:00.242Z,1408.00
2023-03-01T06:56:00.099Z,1358.00
2023-03-01T07:00:00.224Z,1561.00
2023-03-01T07:04:00.238Z,1582.00
2023-03-01T07:08:00.474Z,1616.00
2023-03-01T07:12:00.578Z,1624.00
2023-03-01T07:16:00.642Z,1645.00
2023-03-01T07:20:00.740Z,1679.00
2023-03-01T07:24:01.259Z,1644.00
2023-03-01T07:28:00.817Z,1647.00
2023-03-01T07:32:00.940Z,1613.00
2023-03-01T07:36:00.897Z,1612.00
2023-03-01T07:40:01.103Z,1653.00
2023-03-01T07:44:01.019Z,1622.00
2023-03-01T07:48:01.272Z,1573.00
2023-03-01T07:52:00.968Z,2027.00
2023-03-01T07:56:01.271Z,1979.00
2023-03-01T08:00:00.921Z,1987.00
2023-03-01T08:04:01.285Z,1959.00
2023-03-01T08:08:00.811Z,1919.00
2023-03-01T08:12:01.305Z,1899.00
2023-03-01T08:16:00.803Z,1876.00
2023-03-01T08:20:00.809Z,1830.00
2023-03-01T08:24:00.709Z,1783.00
2023-03-01T08:28:00.658Z,1742.00
2023-03-01T08:32:00.956Z,1734.00
2023-03-01T08:36:01.311Z,1713.00
2023-03-01T08:40:01.394Z,1684.00
2023-03-01T08:44:00.916Z,1794.00
2023-03-01T08:48:01.245Z,1698.00
2023-03-01T08:52:01.265Z,1643.00
2023-03-01T08:56:01.351Z,1539.00
2023-03-01T09:00:01.429Z,1467.00
2023-03-01T09:04:01.669Z,1370.00
2023-03-01T09:08:01.779Z,1308.00
2023-03-01T09:12:01.569Z,1236.00
2023-03-01T09:16:01.781Z,1184.00
2023-03-01T09:20:01.540Z,1119.00
2023-03-01T09:24:01.808Z,1067.00
2023-03-01T09:28:01.447Z,1026.00
2023-03-01T09:32:01.831Z,974.00
2023-03-01T09:36:01.883Z,928.00
2023-03-01T09:40:01.306Z,885.00
2023-03-01T09:44:01.281Z,846.00
2023-03-01T09:48:01.292Z,811.00
2023-03-01T09:52:01.824Z,773.00
2023-03-01T09:56:01.454Z,742.00
2023-03-01T10:00:01.805Z,726.00
2023-03-01T10:04:01.766Z,699.00
2023-03-01T10:08:01.914Z,672.00
2023-03-01T10:12:02.151Z,653.00
2023-03-01T10:16:02.318Z,649.00
2023-03-01T10:20:02.818Z,642.00
2023-03-01T10:24:02.415Z,626.00
2023-03-01T10:28:02.478Z,625.00
2023-03-01T10:32:02.875Z,613.00
2023-03-01T10:36:02.332Z,643.00
2023-03-01T10:40:02.328Z,803.00
2023-03-01T10:44:02.188Z,1196.00
2023-03-01T10:48:02.312Z,1133.00
2023-03-01T10:52:02.303Z,1096.00
2023-03-01T10:56:02.111Z,1081.00
2023-03-01T11:00:02.311Z,1029.00
2023-03-01T11:04:02.067Z,1012.00
2023-03-01T11:08:02.002Z,952.00
2023-03-01T11:12:01.997Z,910.00
2023-03-01T11:16:02.302Z,860.00
2023-03-01T11:20:03.120Z,825.00
2023-03-01T11:24:02.610Z,792.00
2023-03-01T11:28:02.798Z,770.00
2023-03-01T11:32:03.140Z,743.00
2023-03-01T11:36:03.274Z,710.00
2023-03-01T11:40:03.438Z,681.00
2023-03-01T11:44:03.912Z,661.00
2023-03-01T11:48:03.835Z,642.00
2023-03-01T11:52:03.923Z,624.00
2023-03-01T11:56:03.886Z,612.00
2023-03-01T12:00:03.908Z,602.00
2023-03-01T12:04:03.976Z,591.00
2023-03-01T12:08:03.854Z,579.00
2023-03-01T12:12:03.697Z,567.00
2023-03-01T12:16:03.790Z,558.00
2023-03-01T12:20:04.338Z,552.00
2023-03-01T12:24:03.806Z,543.00
2023-03-01T12:28:03.861Z,532.00
2023-03-01T12:32:03.846Z,521.00
2023-03-01T12:36:03.989Z,535.00
2023-03-01T12:40:03.615Z,537.00
2023-03-01T12:44:03.600Z,548.00
2023-03-01T12:48:03.527Z,544.00
2023-03-01T12:52:04.000Z,551.00
2023-03-01T12:56:03.468Z,553.00
2023-03-01T13:00:03.906Z,557.00
2023-03-01T13:04:03.535Z,568.00
2023-03-01T13:08:03.391Z,562.00
2023-03-01T13:12:08.182Z,557.00
2023-03-01T13:16:04.285Z,560.00
2023-03-01T13:20:03.280Z,557.00
2023-03-01T13:24:03.220Z,562.00
2023-03-01T13:28:03.373Z,557.00
2023-03-01T13:32:03.604Z,549.00
2023-03-01T13:36:03.729Z,539.00
2023-03-01T13:40:03.998Z,532.00
2023-03-01T13:44:04.072Z,532.00
2023-03-01T13:48:04.307Z,528.00
2023-03-01T13:52:04.471Z,527.00
2023-03-01T13:56:04.669Z,531.00
2023-03-01T14:00:04.880Z,522.00
2023-03-01T14:04:05.106Z,517.00
2023-03-01T14:08:05.147Z,520.00
2023-03-01T14:12:05.318Z,517.00
2023-03-01T14:16:05.509Z,517.00
2023-03-01T14:20:05.586Z,517.00
2023-03-01T14:24:05.778Z,527.00
2023-03-01T14:28:06.334Z,528.00
2023-03-01T14:32:06.238Z,536.00
2023-03-01T14:36:06.181Z,540.00
2023-03-01T14:40:06.217Z,543.00
2023-03-01T14:44:06.098Z,540.00
2023-03-01T14:48:06.083Z,542.00
2023-03-01T14:52:06.094Z,537.00
2023-03-01T14:56:06.021Z,536.00
2023-03-01T15:00:05.979Z,539.00
2023-03-01T15:04:06.004Z,533.00
2023-03-01T15:08:05.878Z,528.00
2023-03-01T15:12:05.955Z,515.00
2023-03-01T15:16:06.176Z,501.00
2023-03-01T15:20:06.302Z,506.00
2023-03-01T15:24:06.438Z,513.00
2023-03-01T15:28:06.572Z,513.00
2023-03-01T15:32:06.808Z,518.00
2023-03-01T15:36:06.850Z,518.00
2023-03-01T15:40:06.795Z,527.00
2023-03-01T15:44:06.769Z,526.00
2023-03-01T15:48:06.875Z,529.00
2023-03-01T15:52:06.665Z,529.00
2023-03-01T15:56:06.645Z,529.00
2023-03-01T16:00:06.586Z,522.00
2023-03-01T16:04:06.685Z,527.00
2023-03-01T16:08:06.517Z,522.00
2023-03-01T16:12:06.473Z,520.00
2023-03-01T16:16:06.514Z,528.00
2023-03-01T16:20:06.566Z,527.00
2023-03-01T16:24:06.398Z,530.00
2023-03-01T16:28:06.330Z,532.00
2023-03-01T16:32:06.427Z,537.00
2023-03-01T16:36:06.329Z,535.00
2023-03-01T16:40:06.227Z,536.00
2023-03-01T16:44:06.178Z,531.00
2023-03-01T16:48:06.149Z,534.00
2023-03-01T16:52:06.135Z,538.00
2023-03-01T16:56:06.094Z,539.00
2023-03-01T17:00:06.027Z,545.00
2023-03-01T17:04:05.988Z,550.00
2023-03-01T17:08:05.989Z,545.00
2023-03-01T17:12:05.939Z,543.00
2023-03-01T17:16:05.908Z,545.00
2023-03-01T17:20:05.861Z,545.00
2023-03-01T17:24:05.859Z,541.00
2023-03-01T17:28:05.779Z,548.00
2023-03-01T17:32:05.921Z,545.00
2023-03-01T17:36:05.797Z,549.00
2023-03-01T17:40:05.691Z,555.00
2023-03-01T17:44:05.707Z,559.00
2023-03-01T17:48:05.706Z,558.00
2023-03-01T17:52:05.658Z,536.00
2023-03-01T17:56:05.702Z,550.00
2023-03-01T18:00:05.736Z,546.00
2023-03-01T18:04:05.772Z,538.00
2023-03-01T18:08:05.814Z,533.00
2023-03-01T18:12:05.891Z,523.00
2023-03-01T18:16:05.932Z,531.00
2023-03-01T18:20:05.994Z,533.00
2023-03-01T18:24:06.027Z,522.00
2023-03-01T18:28:06.086Z,525.00
2023-03-01T18:32:06.148Z,515.00
2023-03-01T18:36:06.210Z,510.00
2023-03-01T18:40:06.239Z,525.00
2023-03-01T18:44:06.276Z,526.00
2023-03-01T18:48:06.326Z,514.00
2023-03-01T18:52:06.448Z,523.00
2023-03-01T18:56:06.489Z,510.00
2023-03-01T19:00:06.606Z,518.00
2023-03-01T19:04:06.681Z,506.00
2023-03-01T19:08:06.689Z,521.00
2023-03-01T19:12:06.744Z,505.00
2023-03-01T19:16:06.855Z,508.00
2023-03-01T19:20:06.914Z,514.00
2023-03-01T19:24:06.954Z,500.00
2023-03-01T19:28:07.054Z,510.00
2023-03-01T19:32:07.598Z,501.00
2023-03-01T19:36:07.281Z,501.00
2023-03-01T19:40:07.236Z,515.00
2023-03-01T19:44:07.335Z,522.00
2023-03-01T19:48:07.423Z,526.00
2023-03-01T19:52:07.452Z,500.00
2023-03-01T19:56:07.521Z,537.00
2023-03-01T20:00:07.616Z,509.00
2023-03-01T20:04:07.726Z,522.00
2023-03-01T20:08:07.806Z,514.00
2023-03-01T20:12:07.876Z,527.00
2023-03-01T20:16:08.065Z,517.00
2023-03-01T20:20:08.169Z,511.00
2023-03-01T20:24:08.103Z,514.00
2023-03-01T20:28:08.191Z,525.00
2023-03-01T20:32:08.288Z,516.00
2023-03-01T20:36:08.464Z,507.00
2023-03-01T20:40:08.469Z,514.00
2023-03-01T20:44:08.607Z,505.00
2023-03-01T20:48:08.753Z,504.00
2023-03-01T20:52:08.916Z,522.00
2023-03-01T20:56:08.999Z,500.00
2023-03-01T21:00:09.090Z,522.00
2023-03-01T21:04:09.375Z,506.00
2023-03-01T21:08:09.376Z,507.00
2023-03-01T21:12:09.536Z,507.00
2023-03-01T21:16:09.728Z,504.00
2023-03-01T21:20:09.793Z,507.00
2023-03-01T21:24:09.947Z,505.00
2023-03-01T21:28:10.093Z,507.00
2023-03-01T21:32:10.341Z,517.00
2023-03-01T21:36:10.393Z,514.00
2023-03-01T21:40:10.578Z,517.00
2023-03-01T21:44:10.676Z,517.00
2023-03-01T21:48:10.861Z,521.00
2023-03-01T21:52:11.020Z,507.00
2023-03-01T21:56:11.193Z,516.00
2023-03-01T22:00:11.379Z,520.00
2023-03-01T22:04:11.579Z,510.00
2023-03-01T22:08:11.777Z,509.00
2023-03-01T22:12:11.955Z,513.00
2023-03-01T22:16:12.176Z,519.00
2023-03-01T22:20:12.360Z,518.00
2023-03-01T22:24:12.520Z,503.00
2023-03-01T22:28:12.742Z,506.00
2023-03-01T22:32:13.020Z,505.00
2023-03-01T22:36:13.214Z,504.00
2023-03-01T22:40:13.424Z,517.00
2023-03-01T22:44:13.323Z,506.00
2023-03-01T22:48:13.323Z,503.00
2023-03-01T22:52:13.290Z,503.00
2023-03-01T22:56:13.249Z,513.00
2023-03-01T23:00:13.348Z,505.00
2023-03-01T23:04:13.157Z,509.00
2023-03-01T23:08:13.129Z,500.00
2023-03-01T23:12:13.112Z,508.00
2023-03-01T23:16:13.060Z,506.00
2023-03-01T23:20:13.020Z,505.00
2023-03-01T23:24:13.308Z,508.00
2023-03-01T23:28:13.227Z,505.00
2023-03-01T23:32:13.261Z,517.00
2023-03-01T23:36:14.610Z,500.00
2023-03-01T23:40:13.103Z,506.00
2023-03-01T23:44:13.039Z,512.00
2023-03-01T23:48:13.122Z,505.00
2023-03-01T23:52:13.066Z,513.00
2023-03-01T23:56:13.241Z,511.00
